createdAt,value
2024-01-22T00:00:19.130Z,21.61
2024-01-22T00:02:20.769Z,21.65
2024-01-22T00:04:22.438Z,21.63
2024-01-22T00:06:24.150Z,21.68
2024-01-22T00:08:25.853Z,21.68
2024-01-22T00:10:27.443Z,21.63
2024-01-22T00:12:29.171Z,21.64
2024-01-22T00:14:30.748Z,21.65
2024-01-22T00:16:32.896Z,21.62
2024-01-22T00:18:34.783Z,21.63
2024-01-22T00:20:36.683Z,21.63
2024-01-22T00:22:38.292Z,21.64
2024-01-22T00:24:41.105Z,21.65
2024-01-22T00:26:42.872Z,21.66
2024-01-22T00:28:44.569Z,21.68
2024-01-22T00:30:46.325Z,21.69
2024-01-22T00:32:48.255Z,21.70
2024-01-22T00:34:50.047Z,21.68
2024-01-22T00:36:51.746Z,21.67
2024-01-22T00:38:53.601Z,21.64
2024-01-22T00:40:55.381Z,21.65
2024-01-22T00:42:56.991Z,21.66
2024-01-22T00:44:58.623Z,21.65
2024-01-22T00:47:00.305Z,21.69
2024-01-22T00:49:01.982Z,21.70
2024-01-22T00:51:04.030Z,21.71
2024-01-22T00:53:05.622Z,21.74
2024-01-22T00:55:07.649Z,21.73
2024-01-22T00:57:09.406Z,21.73
2024-01-22T00:59:11.083Z,21.69
2024-01-22T01:01:13.074Z,21.71
2024-01-22T01:03:14.865Z,21.67
2024-01-22T01:05:17.204Z,21.65
2024-01-22T01:07:18.943Z,21.69
2024-01-22T01:09:20.579Z,21.71
2024-01-22T01:11:22.209Z,21.72
2024-01-22T01:13:23.963Z,21.75
2024-01-22T01:15:25.660Z,21.73
2024-01-22T01:17:27.571Z,21.76
2024-01-22T01:19:29.298Z,21.77
2024-01-22T01:21:30.954Z,21.77
2024-01-22T01:23:34.356Z,21.75
2024-01-22T01:25:37.343Z,21.72
2024-01-22T01:27:38.951Z,21.71
2024-01-22T01:29:40.636Z,21.72
2024-01-22T01:31:42.479Z,21.75
2024-01-22T01:33:44.370Z,21.76
2024-01-22T01:35:47.164Z,21.78
2024-01-22T01:37:48.834Z,21.81
2024-01-22T01:39:50.418Z,21.82
2024-01-22T01:41:52.563Z,21.82
2024-01-22T01:43:54.211Z,21.79
2024-01-22T01:45:55.942Z,21.78
2024-01-22T01:47:57.708Z,21.77
2024-01-22T01:49:59.399Z,21.76
2024-01-22T01:52:01.570Z,21.75
2024-01-22T01:54:03.606Z,21.77
2024-01-22T01:56:05.869Z,21.81
2024-01-22T01:58:07.662Z,21.83
2024-01-22T02:00:13.396Z,21.86
2024-01-22T02:02:15.564Z,21.85
2024-01-22T02:04:17.233Z,21.86
2024-01-22T02:06:18.966Z,21.85
2024-01-22T02:08:20.617Z,21.82
2024-01-22T02:10:22.207Z,21.81
2024-01-22T02:12:24.042Z,21.78
2024-01-22T02:14:25.619Z,21.80
2024-01-22T02:16:27.210Z,21.76
2024-01-22T02:18:28.946Z,21.84
2024-01-22T02:20:30.883Z,21.86
2024-01-22T02:22:32.455Z,21.86
2024-01-22T02:24:34.444Z,21.87
2024-01-22T02:26:37.569Z,21.89
2024-01-22T02:28:39.297Z,21.88
2024-01-22T02:30:40.867Z,21.92
2024-01-22T02:32:42.476Z,21.87
2024-01-22T02:34:44.535Z,21.85
2024-01-22T02:36:46.936Z,21.83
2024-01-22T02:38:48.544Z,21.84
2024-01-22T02:40:50.159Z,21.87
2024-01-22T02:42:52.102Z,21.86
2024-01-22T02:44:53.923Z,21.93
2024-01-22T02:46:55.896Z,21.94
2024-01-22T02:48:57.812Z,21.94
2024-01-22T02:50:59.627Z,21.93
2024-01-22T02:53:01.312Z,21.96
2024-01-22T02:55:03.008Z,21.93
2024-01-22T02:57:04.944Z,21.91
2024-01-22T02:59:08.062Z,21.85
2024-01-22T03:01:09.691Z,21.89
2024-01-22T03:03:11.319Z,21.93
2024-01-22T03:05:12.997Z,21.94
2024-01-22T03:07:14.749Z,21.96
2024-01-22T03:09:16.489Z,21.95
2024-01-22T03:11:18.322Z,21.96
2024-01-22T03:13:19.943Z,21.99
2024-01-22T03:15:21.596Z,21.99
2024-01-22T03:17:23.298Z,21.97
2024-01-22T03:19:25.003Z,21.97
2024-01-22T03:21:26.612Z,21.96
2024-01-22T03:23:28.517Z,21.94
2024-01-22T03:25:30.087Z,21.96
2024-01-22T03:27:31.746Z,21.99
2024-01-22T03:29:33.469Z,22.01
2024-01-22T03:31:38.847Z,22.02
2024-01-22T03:33:40.546Z,22.03
2024-01-22T03:35:42.164Z,22.03
2024-01-22T03:37:43.818Z,22.00
2024-01-22T03:39:45.443Z,22.03
2024-01-22T03:41:47.164Z,22.01
2024-01-22T03:43:48.712Z,22.02
2024-01-22T03:45:50.215Z,21.99
2024-01-22T03:47:52.340Z,22.00
2024-01-22T03:49:54.210Z,22.01
2024-01-22T03:51:55.859Z,22.03
2024-01-22T03:53:57.598Z,22.04
2024-01-22T03:55:59.358Z,22.03
2024-01-22T03:58:00.995Z,22.08
2024-01-22T04:00:03.516Z,22.02
2024-01-22T04:02:05.686Z,22.05
2024-01-22T04:04:07.344Z,22.04
2024-01-22T04:06:09.040Z,22.04
2024-01-22T04:08:10.679Z,22.01
2024-01-22T04:10:12.304Z,22.04
2024-01-22T04:12:14.103Z,22.05
2024-01-22T04:14:15.784Z,22.08
2024-01-22T04:16:17.393Z,21.90
2024-01-22T04:18:19.181Z,22.12
2024-01-22T04:20:20.904Z,22.13
2024-01-22T04:22:22.611Z,22.14
2024-01-22T04:24:24.205Z,22.12
2024-01-22T04:26:25.856Z,22.10
2024-01-22T04:28:27.427Z,22.08
2024-01-22T04:30:29.119Z,22.08
2024-01-22T04:32:30.978Z,22.06
2024-01-22T04:34:33.152Z,22.09
2024-01-22T04:36:34.853Z,22.10
2024-01-22T04:38:36.504Z,22.14
2024-01-22T04:40:38.092Z,22.15
2024-01-22T04:42:41.585Z,22.15
2024-01-22T04:44:43.317Z,22.15
2024-01-22T04:46:44.914Z,22.16
2024-01-22T04:48:47.384Z,22.15
2024-01-22T04:50:49.074Z,22.14
2024-01-22T04:52:50.752Z,22.06
2024-01-22T04:54:55.136Z,22.08
2024-01-22T04:57:00.817Z,22.04
2024-01-22T04:59:02.531Z,22.11
2024-01-22T05:01:04.508Z,22.12
2024-01-22T05:03:06.766Z,22.15
2024-01-22T05:05:08.587Z,22.17
2024-01-22T05:07:10.151Z,22.21
2024-01-22T05:09:12.134Z,22.18
2024-01-22T05:11:13.868Z,22.17
2024-01-22T05:13:15.473Z,22.09
2024-01-22T05:15:17.187Z,22.16
2024-01-22T05:17:18.950Z,21.95
2024-01-22T05:19:20.811Z,22.13
2024-01-22T05:21:23.165Z,22.13
2024-01-22T05:23:25.072Z,22.16
2024-01-22T05:25:27.132Z,22.18
2024-01-22T05:27:30.487Z,22.21
2024-01-22T05:29:32.040Z,22.22
2024-01-22T05:31:33.653Z,22.22
2024-01-22T05:33:35.559Z,22.24
2024-01-22T05:35:37.408Z,22.23
2024-01-22T05:37:39.088Z,22.20
2024-01-22T05:39:40.796Z,22.20
2024-01-22T05:41:43.113Z,22.14
2024-01-22T05:43:44.878Z,22.17
2024-01-22T05:45:46.459Z,22.19
2024-01-22T05:47:48.185Z,22.24
2024-01-22T05:49:50.221Z,22.24
2024-01-22T05:51:51.888Z,22.28
2024-01-22T05:53:53.449Z,22.28
2024-01-22T05:55:55.219Z,22.24
2024-01-22T05:57:56.912Z,22.29
2024-01-22T05:59:58.542Z,22.28
2024-01-22T06:02:00.273Z,22.25
2024-01-22T06:04:02.090Z,22.23
2024-01-22T06:06:03.860Z,22.24
2024-01-22T06:08:06.811Z,22.18
2024-01-22T06:10:09.788Z,22.27
2024-01-22T06:12:11.645Z,22.29
2024-01-22T06:14:13.218Z,22.31
2024-01-22T06:16:15.803Z,22.35
2024-01-22T06:18:17.659Z,22.34
2024-01-22T06:20:19.257Z,22.34
2024-01-22T06:22:20.882Z,22.33
2024-01-22T06:24:22.602Z,22.30
2024-01-22T06:26:25.006Z,22.27
2024-01-22T06:28:27.483Z,22.27
2024-01-22T06:30:29.200Z,22.30
2024-01-22T06:32:31.147Z,22.31
2024-01-22T06:34:33.055Z,22.33
2024-01-22T06:36:34.858Z,22.37
2024-01-22T06:38:36.606Z,22.39
2024-01-22T06:40:38.211Z,22.33
2024-01-22T06:42:40.139Z,22.37
2024-01-22T06:44:42.015Z,22.36
2024-01-22T06:46:43.630Z,22.35
2024-01-22T06:48:45.575Z,22.30
2024-01-22T06:50:47.691Z,22.30
2024-01-22T06:52:49.663Z,22.28
2024-01-22T06:54:51.247Z,22.32
2024-01-22T06:56:52.910Z,22.34
2024-01-22T06:58:54.565Z,22.35
2024-01-22T07:00:56.178Z,22.34
2024-01-22T07:03:00.027Z,22.38
2024-01-22T07:05:02.049Z,22.40
2024-01-22T07:07:04.521Z,22.39
2024-01-22T07:09:07.412Z,22.37
2024-01-22T07:11:09.005Z,22.34
2024-01-22T07:13:10.607Z,22.31
2024-01-22T07:15:14.107Z,22.30
2024-01-22T07:17:17.748Z,22.30
2024-01-22T07:19:19.452Z,22.36
2024-01-22T07:21:21.359Z,22.40
2024-01-22T07:23:23.142Z,22.39
2024-01-22T07:25:25.361Z,22.42
2024-01-22T07:27:27.067Z,22.41
2024-01-22T07:29:28.647Z,22.44
2024-01-22T07:31:30.354Z,22.42
2024-01-22T07:33:32.088Z,22.40
2024-01-22T07:35:34.505Z,22.36
2024-01-22T07:37:42.288Z,22.36
2024-01-22T07:39:43.970Z,22.31
2024-01-22T07:41:46.009Z,22.36
2024-01-22T07:43:48.569Z,22.40
2024-01-22T07:45:50.205Z,22.45
2024-01-22T07:47:51.921Z,22.48
2024-01-22T07:49:54.219Z,22.49
2024-01-22T07:51:55.917Z,22.48
2024-01-22T07:53:57.668Z,22.45
2024-01-22T07:55:59.500Z,22.44
2024-01-22T07:58:01.156Z,22.43
2024-01-22T08:00:04.287Z,22.41
2024-01-22T08:02:06.718Z,22.37
2024-01-22T08:04:08.272Z,22.41
2024-01-22T08:06:09.999Z,22.42
2024-01-22T08:08:11.646Z,22.44
2024-01-22T08:10:14.707Z,22.47
2024-01-22T08:12:16.650Z,22.50
2024-01-22T08:14:18.588Z,22.46
2024-01-22T08:16:20.398Z,22.44
2024-01-22T08:18:22.070Z,22.47
2024-01-22T08:20:23.742Z,22.44
2024-01-22T08:22:25.682Z,22.42
2024-01-22T08:24:27.798Z,22.40
2024-01-22T08:26:29.476Z,22.41
2024-01-22T08:28:31.069Z,22.41
2024-01-22T08:30:33.591Z,22.48
2024-01-22T08:32:35.224Z,22.49
2024-01-22T08:34:39.419Z,22.54
2024-01-22T08:36:41.682Z,22.56
2024-01-22T08:38:43.519Z,22.50
2024-01-22T08:40:45.656Z,22.54
2024-01-22T08:42:47.322Z,22.54
2024-01-22T08:44:49.011Z,22.52
2024-01-22T08:46:50.740Z,22.52
2024-01-22T08:48:52.432Z,22.50
2024-01-22T08:50:54.165Z,22.52
2024-01-22T08:52:55.886Z,22.51
2024-01-22T08:54:57.444Z,22.56
2024-01-22T08:56:59.139Z,22.58
2024-01-22T08:59:00.818Z,22.60
2024-01-22T09:01:06.297Z,22.62
2024-01-22T09:03:08.743Z,22.60
2024-01-22T09:05:11.198Z,22.60
2024-01-22T09:07:12.837Z,22.41
2024-01-22T09:09:14.505Z,22.60
2024-01-22T09:11:16.110Z,22.59
2024-01-22T09:13:17.710Z,22.60
2024-01-22T09:15:19.834Z,22.58
2024-01-22T09:17:21.903Z,22.62
2024-01-22T09:19:23.621Z,22.65
2024-01-22T09:21:25.955Z,22.67
2024-01-22T09:23:28.067Z,22.68
2024-01-22T09:25:29.933Z,22.68
2024-01-22T09:27:31.644Z,22.66
2024-01-22T09:29:33.334Z,22.64
2024-01-22T09:31:35.620Z,22.61
2024-01-22T09:33:37.338Z,22.61
2024-01-22T09:35:44.878Z,22.59
2024-01-22T09:37:46.982Z,22.62
2024-01-22T09:39:50.400Z,22.66
2024-01-22T09:41:53.000Z,22.66
2024-01-22T09:43:55.524Z,22.71
2024-01-22T09:45:58.135Z,22.74
2024-01-22T09:48:03.520Z,22.75
2024-01-22T09:50:06.810Z,22.75
2024-01-22T09:52:10.019Z,22.75
2024-01-22T09:54:14.367Z,22.70
2024-01-22T09:56:17.940Z,22.72
2024-01-22T09:58:27.473Z,22.71
2024-01-22T10:00:30.717Z,22.71
2024-01-22T10:02:32.948Z,22.74
2024-01-22T10:04:34.639Z,22.76
2024-01-22T10:06:37.718Z,22.79
2024-01-22T10:08:39.523Z,22.78
2024-01-22T10:10:41.200Z,22.81
2024-01-22T10:13:05.048Z,22.80
2024-01-22T10:15:14.169Z,22.81
2024-01-22T10:17:19.801Z,22.81
2024-01-22T10:19:26.959Z,22.76
2024-01-22T10:21:28.739Z,22.74
2024-01-22T10:23:30.383Z,22.75
2024-01-22T10:25:32.661Z,22.77
2024-01-22T10:27:34.286Z,22.80
2024-01-22T10:29:35.948Z,22.81
2024-01-22T10:32:00.244Z,22.83
2024-01-22T10:34:05.342Z,22.86
2024-01-22T10:36:25.363Z,22.86
2024-01-22T10:38:27.027Z,22.87
2024-01-22T10:40:31.924Z,22.85
2024-01-22T10:42:33.572Z,22.80
2024-01-22T10:44:39.727Z,22.79
2024-01-22T10:46:41.831Z,22.77
2024-01-22T10:48:46.931Z,22.80
2024-01-22T10:50:50.794Z,22.79
2024-01-22T10:52:53.619Z,22.86
2024-01-22T10:54:55.375Z,22.89
2024-01-22T10:57:12.361Z,22.87
2024-01-22T10:59:18.254Z,22.86
2024-01-22T11:01:23.783Z,22.87
2024-01-22T11:03:28.956Z,22.87
2024-01-22T11:05:34.698Z,22.85
2024-01-22T11:07:39.564Z,22.84
2024-01-22T11:09:41.800Z,22.85
2024-01-22T11:11:44.206Z,22.85
2024-01-22T11:13:49.868Z,22.89
2024-01-22T11:15:51.778Z,22.91
2024-01-22T11:17:53.620Z,22.87
2024-01-22T11:20:14.869Z,22.94
2024-01-22T11:22:24.597Z,22.94
2024-01-22T11:24:26.614Z,22.93
2024-01-22T11:26:28.464Z,22.94
2024-01-22T11:28:30.346Z,22.93
2024-01-22T11:30:42.726Z,22.91
2024-01-22T11:34:51.180Z,22.91
2024-01-22T11:36:56.776Z,22.92
2024-01-22T11:38:58.611Z,22.95
2024-01-22T11:41:00.229Z,22.95
2024-01-22T11:43:02.268Z,22.99
2024-01-22T11:45:14.688Z,22.98
2024-01-22T11:47:17.667Z,22.99
2024-01-22T11:49:19.561Z,22.99
2024-01-22T11:51:26.342Z,22.99
2024-01-22T11:53:29.676Z,22.97
2024-01-22T11:55:31.873Z,22.96
2024-01-22T11:57:37.841Z,22.97
2024-01-22T11:59:40.561Z,22.99
2024-01-22T12:01:45.119Z,23.02
2024-01-22T12:03:47.317Z,23.04
2024-01-22T12:05:49.106Z,23.04
2024-01-22T12:07:53.238Z,23.05
2024-01-22T12:09:55.134Z,23.06
2024-01-22T12:11:56.946Z,23.07
2024-01-22T12:14:00.771Z,23.06
2024-01-22T12:16:02.460Z,23.01
2024-01-22T12:18:04.824Z,23.02
2024-01-22T12:20:07.588Z,22.99
2024-01-22T12:22:09.625Z,23.01
2024-01-22T12:24:15.916Z,23.03
2024-01-22T12:26:22.447Z,23.03
2024-01-22T12:28:24.937Z,23.02
2024-01-22T12:30:26.763Z,23.12
2024-01-22T12:32:28.739Z,23.11
2024-01-22T12:34:31.905Z,23.12
2024-01-22T12:38:58.033Z,23.12
2024-01-22T12:41:09.333Z,23.11
2024-01-22T12:43:11.671Z,23.11
2024-01-22T12:45:21.321Z,23.11
2024-01-22T12:47:23.285Z,23.13
2024-01-22T12:49:25.091Z,23.15
2024-01-22T12:51:27.848Z,23.18
2024-01-22T12:53:33.003Z,23.19
2024-01-22T12:55:36.000Z,23.19
2024-01-22T12:57:38.377Z,23.25
2024-01-22T12:59:41.380Z,23.24
2024-01-22T13:01:43.159Z,23.20
2024-01-22T13:03:44.929Z,23.18
2024-01-22T13:05:47.726Z,23.17
2024-01-22T13:07:49.364Z,23.14
2024-01-22T13:09:50.969Z,23.17
2024-01-22T13:11:54.624Z,23.17
2024-01-22T13:13:56.314Z,23.13
2024-01-22T13:16:11.795Z,23.18
2024-01-22T13:18:17.358Z,23.22
2024-01-22T13:20:19.136Z,23.24
2024-01-22T13:22:22.917Z,23.20
2024-01-22T13:24:24.813Z,23.22
2024-01-22T13:26:26.512Z,23.19
2024-01-22T13:28:28.957Z,23.17
2024-01-22T13:30:30.672Z,23.16
2024-01-22T13:32:32.275Z,23.15
2024-01-22T13:34:34.859Z,23.16
2024-01-22T13:36:37.198Z,23.17
2024-01-22T13:38:42.622Z,23.18
2024-01-22T13:40:44.976Z,23.18
2024-01-22T13:42:46.605Z,23.12
2024-01-22T13:44:51.956Z,23.16
2024-01-22T13:46:53.769Z,23.14
2024-01-22T13:48:55.518Z,23.09
2024-01-22T13:50:58.179Z,23.07
2024-01-22T13:53:02.630Z,23.06
2024-01-22T13:55:07.568Z,23.07
2024-01-22T13:57:09.274Z,23.08
2024-01-22T13:59:12.543Z,23.10
2024-01-22T14:01:14.301Z,23.11
2024-01-22T14:03:17.104Z,23.14
2024-01-22T14:05:19.203Z,23.17
2024-01-22T14:07:20.803Z,23.16
2024-01-22T14:09:22.405Z,23.16
2024-01-22T14:11:25.032Z,23.14
2024-01-22T14:13:27.850Z,23.12
2024-01-22T14:15:29.507Z,23.12
2024-01-22T14:17:31.373Z,23.10
2024-01-22T14:19:33.476Z,23.07
2024-01-22T14:21:35.705Z,23.09
2024-01-22T14:23:37.459Z,23.10
2024-01-22T14:25:40.272Z,23.10
2024-01-22T14:27:42.126Z,23.11
2024-01-22T14:29:44.067Z,23.14
2024-01-22T14:31:45.968Z,23.14
2024-01-22T14:33:49.485Z,23.13
2024-01-22T14:35:52.484Z,23.14
2024-01-22T14:37:54.216Z,23.12
2024-01-22T14:39:56.002Z,23.09
2024-01-22T14:41:57.931Z,23.13
2024-01-22T14:43:59.542Z,23.13
2024-01-22T14:46:01.170Z,23.14
2024-01-22T14:48:02.909Z,23.17
2024-01-22T14:50:05.154Z,23.22
2024-01-22T14:54:13.671Z,23.21
2024-01-22T14:56:15.981Z,23.22
2024-01-22T14:58:17.595Z,23.20
2024-01-22T15:00:20.327Z,23.17
2024-01-22T15:02:22.897Z,23.16
2024-01-22T15:06:31.312Z,23.18
2024-01-22T15:08:33.038Z,23.17
2024-01-22T15:10:36.622Z,23.19
2024-01-22T15:12:39.478Z,23.22
2024-01-22T15:14:41.093Z,23.24
2024-01-22T15:16:43.276Z,23.23
2024-01-22T15:18:45.024Z,23.24
2024-01-22T15:20:47.764Z,23.19
2024-01-22T15:22:50.004Z,23.21
2024-01-22T15:26:58.562Z,23.18
2024-01-22T15:29:02.089Z,23.18
2024-01-22T15:31:04.560Z,23.17
2024-01-22T15:33:06.584Z,23.18
2024-01-22T15:35:09.117Z,23.19
2024-01-22T15:37:12.205Z,23.23
2024-01-22T15:41:20.542Z,23.26
2024-01-22T15:43:22.259Z,23.27
2024-01-22T15:45:24.488Z,23.28
2024-01-22T15:47:26.386Z,23.29
2024-01-22T15:49:29.893Z,23.23
2024-01-22T15:51:31.831Z,23.22
2024-01-22T15:53:33.425Z,23.22
2024-01-22T15:55:35.129Z,23.19
2024-01-22T15:57:37.056Z,23.22
2024-01-22T15:59:38.678Z,23.25
2024-01-22T16:03:46.864Z,23.28
2024-01-22T16:05:49.094Z,23.30
2024-01-22T16:07:51.168Z,23.28
2024-01-22T16:09:53.060Z,23.28
2024-01-22T16:11:55.073Z,23.20
2024-01-22T16:18:09.777Z,23.07
2024-01-22T16:20:15.125Z,23.04
2024-01-22T16:22:17.347Z,23.03
2024-01-22T16:24:19.099Z,23.04
2024-01-22T16:30:41.898Z,23.01
2024-01-22T16:32:44.797Z,23.00
2024-01-22T16:34:46.545Z,22.96
2024-01-22T16:36:49.749Z,22.94
2024-01-22T16:38:51.413Z,22.86
2024-01-22T16:40:53.250Z,22.87
2024-01-22T16:42:54.955Z,22.85
2024-01-22T16:44:56.559Z,22.86
2024-01-22T16:46:59.237Z,22.83
2024-01-22T16:49:04.769Z,22.80
2024-01-22T16:55:19.909Z,22.86
2024-01-22T16:57:21.596Z,22.87
2024-01-22T16:59:23.381Z,22.83
2024-01-22T17:01:25.622Z,22.80
2024-01-22T17:07:40.643Z,22.77
2024-01-22T17:09:42.331Z,22.78
2024-01-22T17:11:45.197Z,22.82
2024-01-22T17:13:47.006Z,22.82
2024-01-22T17:15:49.243Z,22.83
2024-01-22T17:17:52.511Z,22.83
2024-01-22T17:19:54.926Z,22.83
2024-01-22T17:21:56.703Z,22.80
2024-01-22T17:23:58.381Z,22.79
2024-01-22T17:26:00.728Z,22.74
2024-01-22T17:28:02.609Z,22.76
2024-01-22T17:30:05.026Z,22.75
2024-01-22T17:32:07.952Z,22.75
2024-01-22T17:34:09.736Z,22.75
2024-01-22T17:36:12.565Z,22.77
2024-01-22T17:38:14.294Z,22.78
2024-01-22T17:40:16.307Z,22.81
2024-01-22T17:42:18.085Z,22.83
2024-01-22T17:44:19.846Z,22.85
2024-01-22T17:46:21.796Z,22.86
2024-01-22T17:48:23.489Z,22.85
2024-01-22T17:50:25.265Z,22.82
2024-01-22T17:52:27.399Z,22.83
2024-01-22T17:54:29.093Z,22.83
2024-01-22T17:56:30.769Z,22.86
2024-01-22T17:58:32.728Z,22.89
2024-01-22T18:02:40.874Z,22.93
2024-01-22T18:04:42.476Z,22.95
2024-01-22T18:06:44.204Z,22.96
2024-01-22T18:08:45.979Z,22.96
2024-01-22T18:10:49.561Z,22.93
2024-01-22T18:12:51.147Z,22.92
2024-01-22T18:14:52.843Z,22.93
2024-01-22T18:19:01.080Z,22.93
2024-01-22T18:21:02.831Z,22.96
2024-01-22T18:23:04.541Z,23.01
2024-01-22T18:25:06.736Z,23.00
2024-01-22T18:27:08.393Z,23.03
2024-01-22T18:31:17.254Z,23.04
2024-01-22T18:33:18.999Z,23.02
2024-01-22T18:35:20.768Z,23.04
2024-01-22T18:37:24.604Z,23.04
2024-01-22T18:39:26.200Z,23.02
2024-01-22T18:41:28.961Z,23.00
2024-01-22T18:43:30.962Z,23.00
2024-01-22T18:45:33.315Z,23.05
2024-01-22T18:47:35.048Z,23.03
2024-01-22T18:49:39.788Z,23.10
2024-01-22T18:51:41.486Z,23.11
2024-01-22T18:53:43.026Z,23.13
2024-01-22T18:55:44.640Z,23.14
2024-01-22T18:57:46.345Z,23.12
2024-01-22T18:59:49.285Z,23.11
2024-01-22T19:01:50.997Z,23.12
2024-01-22T19:03:52.769Z,23.11
2024-01-22T19:05:54.461Z,23.07
2024-01-22T19:07:56.106Z,23.13
2024-01-22T19:09:57.726Z,23.15
2024-01-22T19:11:59.470Z,23.18
2024-01-22T19:14:02.265Z,23.18
2024-01-22T19:16:04.096Z,23.18
2024-01-22T19:18:05.849Z,23.21
2024-01-22T19:20:09.845Z,23.20
2024-01-22T19:22:11.638Z,23.15
2024-01-22T19:24:13.351Z,23.17
2024-01-22T19:26:15.178Z,23.15
2024-01-22T19:28:16.806Z,23.14
2024-01-22T19:30:18.542Z,23.15
2024-01-22T19:32:20.329Z,23.18
2024-01-22T19:34:21.962Z,23.16
2024-01-22T19:36:23.650Z,23.23
2024-01-22T19:38:25.245Z,23.23
2024-01-22T19:40:26.864Z,23.25
2024-01-22T19:42:28.718Z,23.25
2024-01-22T19:44:30.369Z,23.22
2024-01-22T19:46:32.023Z,23.20
2024-01-22T19:48:36.211Z,23.16
2024-01-22T19:50:38.049Z,23.17
2024-01-22T19:52:39.753Z,23.14
2024-01-22T19:54:41.437Z,23.16
2024-01-22T19:56:45.909Z,23.18
2024-01-22T19:58:47.703Z,23.19
2024-01-22T20:00:49.447Z,23.21
2024-01-22T20:02:51.309Z,23.23
2024-01-22T20:04:53.025Z,23.24
2024-01-22T20:06:55.379Z,23.23
2024-01-22T20:08:57.604Z,23.21
2024-01-22T20:10:59.224Z,23.20
2024-01-22T20:13:01.116Z,23.16
2024-01-22T20:15:02.792Z,23.16
2024-01-22T20:17:04.530Z,23.14
2024-01-22T20:19:06.225Z,23.16
2024-01-22T20:21:07.890Z,23.18
2024-01-22T20:25:16.275Z,23.25
2024-01-22T20:27:19.016Z,23.25
2024-01-22T20:29:22.466Z,23.25
2024-01-22T20:31:25.828Z,23.24
2024-01-22T20:33:27.569Z,23.24
2024-01-22T20:35:29.605Z,23.22
2024-01-22T20:37:33.857Z,23.18
2024-01-22T20:39:35.645Z,23.14
2024-01-22T20:41:43.355Z,23.16
2024-01-22T20:43:45.049Z,23.15
2024-01-22T20:45:47.253Z,23.19
2024-01-22T20:47:53.627Z,23.23
2024-01-22T20:49:55.474Z,23.25
2024-01-22T20:51:57.205Z,23.25
2024-01-22T20:53:59.448Z,23.22
2024-01-22T20:56:01.364Z,23.22
2024-01-22T20:58:04.821Z,23.22
2024-01-22T21:00:09.921Z,23.16
2024-01-22T21:02:12.615Z,23.17
2024-01-22T21:04:15.375Z,23.17
2024-01-22T21:06:17.509Z,23.19
2024-01-22T21:08:19.560Z,23.19
2024-01-22T21:10:21.578Z,23.23
2024-01-22T21:12:23.238Z,23.24
2024-01-22T21:14:25.063Z,23.27
2024-01-22T21:16:30.236Z,23.23
2024-01-22T21:18:32.811Z,23.26
2024-01-22T21:20:34.514Z,23.22
2024-01-22T21:22:37.396Z,23.21
2024-01-22T21:24:39.171Z,23.21
2024-01-22T21:26:40.852Z,23.20
2024-01-22T21:28:43.153Z,23.15
2024-01-22T21:30:44.819Z,23.18
2024-01-22T21:32:46.602Z,23.22
2024-01-22T21:34:51.128Z,23.23
2024-01-22T21:36:52.811Z,23.26
2024-01-22T21:39:01.276Z,23.26
2024-01-22T21:41:03.368Z,23.29
2024-01-22T21:43:06.557Z,23.26
2024-01-22T21:45:08.720Z,23.17
2024-01-22T21:47:10.396Z,23.17
2024-01-22T21:49:16.907Z,23.19
2024-01-22T21:51:18.665Z,23.17
2024-01-22T21:53:20.405Z,23.16
2024-01-22T21:55:22.563Z,23.15
2024-01-22T21:57:24.388Z,23.23
2024-01-22T21:59:26.134Z,23.25
2024-01-22T22:01:31.431Z,23.26
2024-01-22T22:03:36.585Z,23.24
2024-01-22T22:05:39.194Z,23.25
2024-01-22T22:07:42.680Z,23.25
2024-01-22T22:09:45.237Z,23.22
2024-01-22T22:11:47.049Z,23.19
2024-01-22T22:13:49.384Z,23.18
2024-01-22T22:15:51.275Z,23.19
2024-01-22T22:17:53.889Z,23.14
2024-01-22T22:19:55.971Z,23.21
2024-01-22T22:21:57.560Z,23.23
2024-01-22T22:24:00.923Z,23.25
2024-01-22T22:26:02.872Z,23.26
2024-01-22T22:28:05.128Z,23.27
2024-01-22T22:30:08.605Z,23.26
2024-01-22T22:32:10.230Z,23.26
2024-01-22T22:34:12.049Z,23.19
2024-01-22T22:36:17.194Z,23.16
2024-01-22T22:38:19.504Z,23.19
2024-01-22T22:40:22.408Z,23.19
2024-01-22T22:42:24.087Z,23.22
2024-01-22T22:44:25.764Z,23.19
2024-01-22T22:46:33.053Z,23.26
2024-01-22T22:48:35.153Z,23.29
2024-01-22T22:50:36.808Z,23.28
2024-01-22T22:52:38.651Z,23.28
2024-01-22T22:54:41.700Z,23.29
2024-01-22T22:56:44.008Z,23.29
2024-01-22T22:58:48.687Z,23.24
2024-01-22T23:00:53.633Z,23.13
2024-01-22T23:02:56.049Z,23.19
2024-01-22T23:04:58.027Z,23.18
2024-01-22T23:06:59.661Z,23.18
2024-01-22T23:09:01.297Z,23.20
2024-01-22T23:11:03.507Z,23.20
2024-01-22T23:13:05.098Z,23.26
2024-01-22T23:15:07.129Z,23.27
2024-01-22T23:17:12.090Z,23.27
2024-01-22T23:19:13.852Z,23.24
2024-01-22T23:21:15.819Z,23.20
2024-01-22T23:23:18.315Z,23.19
2024-01-22T23:25:20.058Z,23.17
2024-01-22T23:27:23.896Z,23.17
2024-01-22T23:29:26.017Z,23.20
2024-01-22T23:31:27.678Z,23.21
2024-01-22T23:33:31.247Z,23.21
2024-01-22T23:35:34.942Z,23.25
2024-01-22T23:37:36.725Z,23.21
2024-01-22T23:39:38.360Z,23.26
2024-01-22T23:41:41.524Z,23.26
2024-01-22T23:43:43.386Z,23.22
2024-01-22T23:45:46.020Z,23.25
2024-01-22T23:47:47.841Z,23.24
2024-01-22T23:49:52.704Z,23.22
2024-01-22T23:51:54.545Z,23.19
2024-01-22T23:53:56.182Z,23.20
2024-01-22T23:55:58.513Z,23.17
2024-01-22T23:58:00.181Z,23.23
